Kezdőlap
METAR-TAF:

METAR-TAF

Repülőterek :

Gaborone, Botswana

földrajzi szélesség: 24-13S, földrajzi hosszúság: 025-55E, magasság: 1005 m

Jelenlegi meteorológiai megfigyelések

A jelentés 19 perccel ezelõtt készült, 22:00 UTC
Hőmérséklet 11°C
Páratartalom 24%
Légköri nyomás 1020 hPa
Látótávolság 10 km, vagy több
felhőtlen 1500 m magasságban, és nincs gomolyfelhõ

METAR: FBSK 192200Z /////KT CAVOK 11/M09 Q1020 NOSIG

Idő: 00:19 (22:19 UTC)

Előrejelzés

A jelentés 6 órával és 19 perccel ezelõtt készült, 16:00 UTC
Az előrejelzés 19-én 18 óra UTC és 20-én 24 óra UTC között érvényes
Északnyugati szél 6 kt
Látótávolság 10 km, vagy több
felhőtlen 1500 m magasságban, és nincs gomolyfelhõ
19-én 21 óra UTC és 19-én 23 óra UTC között fokozatosan kialakuló
Nyugati szél 4 kt

TAF: FBSK 191600Z 1918/2024 32006KT CAVOK BECMG 1921/1923 26004KT

Meteorológiai megfigyelések és előrejelzések több, mint 4000 repülőtéren (METAR és TAF jelentéseket).

A térképen piros és sárga pontok jelzik az elérhető meteorológiai állomásokat.

Mozgassa az egeret a pont fölött, hogy megjelenjen az állomás neve.

Azután kattintson az időjárási megfigyelések és előrejelzések megtekintéséhez.

A térkép megváltoztatása: kattintson a fekete keresztel jelölt zöld gombra ráközelítéshez, a vonallal jelölt zöld gombra távolításhoz, vagy a zöld nyilakra a szomszédos térképek eléréséhez.


METAR-TAF: